createdAt,value
2023-04-19T00:01:03.304Z,13.83
2023-04-19T00:03:31.653Z,13.98
2023-04-19T00:05:59.343Z,14.01
2023-04-19T00:08:26.750Z,14.04
2023-04-19T00:10:54.195Z,14.18
2023-04-19T00:13:21.994Z,14.18
2023-04-19T00:15:49.187Z,14.26
2023-04-19T00:18:16.612Z,14.16
2023-04-19T00:20:44.287Z,14.04
2023-04-19T00:23:11.388Z,14.04
2023-04-19T00:25:39.066Z,14.01
2023-04-19T00:28:06.175Z,14.03
2023-04-19T00:30:33.334Z,13.97
2023-04-19T00:33:01.167Z,13.83
2023-04-19T00:35:28.272Z,13.71
2023-04-19T00:37:55.476Z,13.69
2023-04-19T00:40:23.009Z,13.68
2023-04-19T00:42:50.201Z,13.72
2023-04-19T00:45:17.328Z,13.74
2023-04-19T00:47:44.901Z,13.68
2023-04-19T00:50:12.599Z,13.77
2023-04-19T00:52:39.973Z,13.81
2023-04-19T00:55:08.192Z,13.76
2023-04-19T00:57:35.529Z,13.64
2023-04-19T01:00:02.851Z,13.42
2023-04-19T01:02:32.035Z,13.37
2023-04-19T01:04:59.260Z,13.38
2023-04-19T01:07:26.609Z,13.41
2023-04-19T01:09:54.140Z,13.37
2023-04-19T01:12:23.055Z,13.39
2023-04-19T01:14:50.651Z,13.42
2023-04-19T01:17:19.323Z,13.39
2023-04-19T01:19:46.685Z,13.46
2023-04-19T01:22:21.489Z,13.45
2023-04-19T01:24:48.929Z,13.38
2023-04-19T01:27:17.572Z,13.38
2023-04-19T01:29:44.749Z,13.33
2023-04-19T01:32:13.779Z,13.31
2023-04-19T01:34:42.012Z,13.32
2023-04-19T01:37:09.257Z,13.37
2023-04-19T01:39:36.770Z,13.35
2023-04-19T01:42:04.457Z,13.30
2023-04-19T01:44:31.654Z,13.29
2023-04-19T01:47:00.394Z,13.28
2023-04-19T01:49:27.683Z,13.27
2023-04-19T01:51:54.862Z,13.26
2023-04-19T01:54:22.320Z,13.20
2023-04-19T01:56:50.855Z,13.16
2023-04-19T01:59:18.057Z,13.18
2023-04-19T02:01:45.825Z,13.05
2023-04-19T02:04:13.511Z,12.91
2023-04-19T02:06:40.973Z,12.75
2023-04-19T02:09:08.424Z,12.70
2023-04-19T02:11:35.876Z,12.52
2023-04-19T02:14:03.016Z,12.43
2023-04-19T02:16:30.196Z,12.35
2023-04-19T02:18:58.762Z,12.30
2023-04-19T02:21:26.008Z,12.23
2023-04-19T02:23:53.153Z,12.10
2023-04-19T02:26:20.710Z,12.12
2023-04-19T02:28:48.129Z,12.20
2023-04-19T02:31:15.675Z,12.23
2023-04-19T02:33:44.084Z,12.24
2023-04-19T02:36:12.169Z,12.36
2023-04-19T02:38:39.296Z,12.40
2023-04-19T02:41:06.402Z,12.47
2023-04-19T02:43:33.818Z,12.49
2023-04-19T02:46:01.595Z,12.48
2023-04-19T02:48:28.873Z,12.49
2023-04-19T02:50:56.358Z,12.54
2023-04-19T02:53:23.676Z,12.49
2023-04-19T02:55:51.188Z,12.50
2023-04-19T02:58:18.894Z,12.50
2023-04-19T03:00:46.482Z,12.51
2023-04-19T03:03:14.613Z,12.46
2023-04-19T03:05:42.089Z,12.40
2023-04-19T03:08:11.160Z,12.34
2023-04-19T03:10:38.629Z,12.31
2023-04-19T03:13:06.006Z,12.38
2023-04-19T03:15:33.126Z,12.36
2023-04-19T03:18:00.362Z,12.31
2023-04-19T03:20:28.252Z,12.37
2023-04-19T03:22:56.448Z,12.32
2023-04-19T03:25:24.195Z,12.21
2023-04-19T03:27:52.749Z,12.13
2023-04-19T03:30:20.978Z,12.10
2023-04-19T03:32:48.376Z,12.14
2023-04-19T03:35:16.183Z,12.12
2023-04-19T03:37:44.013Z,12.15
2023-04-19T03:40:11.692Z,12.08
2023-04-19T03:42:39.554Z,12.02
2023-04-19T03:45:07.326Z,12.12
2023-04-19T03:47:35.033Z,12.14
2023-04-19T03:50:03.474Z,12.07
2023-04-19T03:52:31.351Z,12.11
2023-04-19T03:54:58.533Z,12.03
2023-04-19T03:57:26.474Z,11.98
2023-04-19T03:59:53.917Z,12.05
2023-04-19T04:02:21.321Z,12.18
2023-04-19T04:04:54.192Z,12.42
2023-04-19T04:07:23.238Z,12.41
2023-04-19T04:09:51.546Z,12.62
2023-04-19T04:12:18.685Z,12.91
2023-04-19T04:14:47.229Z,12.86
2023-04-19T04:17:15.326Z,12.87
2023-04-19T04:19:42.972Z,12.54
2023-04-19T04:22:10.183Z,12.68
2023-04-19T04:24:41.464Z,12.54
2023-04-19T04:27:11.036Z,12.45
2023-04-19T04:29:39.784Z,12.44
2023-04-19T04:32:10.875Z,12.34
2023-04-19T04:34:38.586Z,12.31
2023-04-19T04:37:07.800Z,12.23
2023-04-19T04:39:39.223Z,12.22
2023-04-19T04:42:08.956Z,12.20
2023-04-19T04:44:37.229Z,12.11
2023-04-19T04:47:04.933Z,12.19
2023-04-19T04:49:33.491Z,12.25
2023-04-19T04:52:00.815Z,12.33
2023-04-19T04:54:28.961Z,12.32
2023-04-19T04:56:57.281Z,12.29
2023-04-19T04:59:24.536Z,12.25
2023-04-19T05:01:51.796Z,12.43
2023-04-19T05:04:19.645Z,12.61
2023-04-19T05:06:46.921Z,12.74
2023-04-19T05:09:17.348Z,12.85
2023-04-19T05:11:45.809Z,12.94
2023-04-19T05:14:13.436Z,13.04
2023-04-19T05:16:40.892Z,13.13
2023-04-19T05:19:08.324Z,13.28
2023-04-19T05:21:36.353Z,13.45
2023-04-19T05:24:04.231Z,13.54
2023-04-19T05:26:33.126Z,13.62
2023-04-19T05:29:00.768Z,13.51
2023-04-19T05:31:28.463Z,13.65
2023-04-19T05:33:56.234Z,13.78
2023-04-19T05:36:23.368Z,13.70
2023-04-19T05:38:52.158Z,13.58
2023-04-19T05:41:20.870Z,13.65
2023-04-19T05:43:48.158Z,13.62
2023-04-19T05:46:15.614Z,13.75
2023-04-19T05:48:43.097Z,13.71
2023-04-19T05:51:10.654Z,13.80
2023-04-19T05:53:39.392Z,13.79
2023-04-19T05:56:07.260Z,13.70
2023-04-19T05:58:34.438Z,13.85
2023-04-19T06:01:02.308Z,14.00
2023-04-19T06:03:32.222Z,14.06
2023-04-19T06:06:00.548Z,14.21
2023-04-19T06:08:27.825Z,14.38
2023-04-19T06:13:24.410Z,14.62
2023-04-19T06:15:52.577Z,14.69
2023-04-19T06:18:21.358Z,14.71
2023-04-19T06:20:48.592Z,14.34
2023-04-19T06:23:17.223Z,14.27
2023-04-19T06:25:44.763Z,14.38
2023-04-19T06:28:11.877Z,14.45
2023-04-19T06:30:39.065Z,14.57
2023-04-19T06:33:06.721Z,14.62
2023-04-19T06:35:33.843Z,14.76
2023-04-19T06:38:00.994Z,14.77
2023-04-19T06:40:29.400Z,14.66
2023-04-19T06:42:59.455Z,14.84
2023-04-19T06:45:27.184Z,15.04
2023-04-19T06:47:54.614Z,15.13
2023-04-19T06:50:21.933Z,15.24
2023-04-19T06:52:49.123Z,15.33
2023-04-19T06:55:16.552Z,15.40
2023-04-19T06:57:43.691Z,15.29
2023-04-19T07:00:11.542Z,15.29
2023-04-19T07:02:39.047Z,15.27
2023-04-19T07:05:08.495Z,15.33
2023-04-19T07:07:38.196Z,15.45
2023-04-19T07:10:06.287Z,15.61
2023-04-19T07:12:33.415Z,15.57
2023-04-19T07:15:00.651Z,15.59
2023-04-19T07:17:28.519Z,15.57
2023-04-19T07:19:56.265Z,15.47
2023-04-19T07:22:23.402Z,15.51
2023-04-19T07:24:52.166Z,15.69
2023-04-19T07:27:19.360Z,15.93
2023-04-19T07:29:46.824Z,16.06
2023-04-19T07:32:15.257Z,16.20
2023-04-19T07:34:43.560Z,16.22
2023-04-19T07:37:11.094Z,16.30
2023-04-19T07:39:39.468Z,16.24
2023-04-19T07:42:06.606Z,16.28
2023-04-19T07:44:33.796Z,16.28
2023-04-19T07:47:01.262Z,16.34
2023-04-19T07:49:33.844Z,16.09
2023-04-19T07:52:02.020Z,15.94
2023-04-19T07:54:30.246Z,15.80
2023-04-19T07:56:59.012Z,15.80
2023-04-19T07:59:26.447Z,15.86
2023-04-19T08:01:53.708Z,15.93
2023-04-19T08:04:23.256Z,16.06
2023-04-19T08:06:50.599Z,16.02
2023-04-19T08:09:17.721Z,16.02
2023-04-19T08:11:45.153Z,16.18
2023-04-19T08:14:22.235Z,16.15
2023-04-19T08:17:22.457Z,16.17
2023-04-19T08:19:45.421Z,16.17
2023-04-19T08:22:12.800Z,16.16
2023-04-19T08:24:39.904Z,16.34
2023-04-19T08:27:07.137Z,16.45
2023-04-19T08:29:34.745Z,16.39
2023-04-19T08:32:01.989Z,16.28
2023-04-19T08:34:29.187Z,16.41
2023-04-19T08:37:03.960Z,16.56
2023-04-19T08:39:33.923Z,16.55
2023-04-19T08:42:09.245Z,16.50
2023-04-19T08:44:59.631Z,16.55
2023-04-19T08:47:35.544Z,16.52
2023-04-19T08:50:17.419Z,16.53
2023-04-19T08:52:58.775Z,16.73
2023-04-19T08:55:30.993Z,16.78
2023-04-19T08:57:58.809Z,16.81
2023-04-19T09:00:26.096Z,16.80
2023-04-19T09:02:55.942Z,16.70
2023-04-19T09:05:23.837Z,16.53
2023-04-19T09:07:51.645Z,16.50
2023-04-19T09:10:21.218Z,16.55
2023-04-19T09:13:05.413Z,16.38
2023-04-19T09:15:37.918Z,16.08
2023-04-19T09:18:07.774Z,16.14
2023-04-19T09:20:39.245Z,16.16
2023-04-19T09:23:08.855Z,16.14
2023-04-19T09:25:55.373Z,16.03
2023-04-19T09:28:24.261Z,16.02
2023-04-19T09:33:39.953Z,16.25
2023-04-19T09:36:08.466Z,16.38
2023-04-19T09:38:49.154Z,16.21
2023-04-19T09:41:19.735Z,16.36
2023-04-19T09:44:07.344Z,16.54
2023-04-19T09:46:37.151Z,16.51
2023-04-19T09:51:48.121Z,16.64
2023-04-19T09:54:16.771Z,16.77
2023-04-19T09:56:44.782Z,16.80
2023-04-19T09:59:20.407Z,16.96
2023-04-19T10:01:56.549Z,17.05
2023-04-19T10:04:38.470Z,16.94
2023-04-19T10:09:52.494Z,17.01
2023-04-19T10:12:46.253Z,17.19
2023-04-19T10:15:13.673Z,17.19
2023-04-19T10:17:41.819Z,16.99
2023-04-19T10:20:12.140Z,17.06
2023-04-19T10:22:40.083Z,17.21
2023-04-19T10:25:15.689Z,17.22
2023-04-19T10:27:49.044Z,17.18
2023-04-19T10:30:23.326Z,17.11
2023-04-19T10:32:56.501Z,17.26
2023-04-19T10:35:26.027Z,17.13
2023-04-19T10:38:08.647Z,17.22
2023-04-19T10:40:51.522Z,17.16
2023-04-19T10:43:19.828Z,17.26
2023-04-19T10:45:47.824Z,17.30
2023-04-19T10:48:27.608Z,17.45
2023-04-19T10:51:23.252Z,17.43
2023-04-19T10:53:52.470Z,17.43
2023-04-19T10:56:41.266Z,17.62
2023-04-19T10:59:13.181Z,17.95
2023-04-19T11:01:45.595Z,17.78
2023-04-19T11:04:17.519Z,17.79
2023-04-19T11:06:51.469Z,17.67
2023-04-19T11:09:30.998Z,17.82
2023-04-19T11:12:11.045Z,17.97
2023-04-19T11:14:49.320Z,17.78
2023-04-19T11:17:20.897Z,17.86
2023-04-19T11:20:01.090Z,17.69
2023-04-19T11:22:37.925Z,17.35
2023-04-19T11:25:21.897Z,17.46
2023-04-19T11:27:53.036Z,17.49
2023-04-19T11:30:22.780Z,17.63
2023-04-19T11:32:53.750Z,17.99
2023-04-19T11:35:22.694Z,18.10
2023-04-19T11:37:50.361Z,18.05
2023-04-19T11:40:19.736Z,18.16
2023-04-19T11:42:47.414Z,18.18
2023-04-19T11:45:30.283Z,18.26
2023-04-19T11:48:00.446Z,18.24
2023-04-19T11:50:35.053Z,17.93
2023-04-19T11:53:21.604Z,17.68
2023-04-19T11:55:53.780Z,17.66
2023-04-19T11:58:31.991Z,17.48
2023-04-19T12:01:06.978Z,17.25
2023-04-19T12:03:40.299Z,17.13
2023-04-19T12:06:11.788Z,17.10
2023-04-19T12:08:43.637Z,17.26
2023-04-19T12:11:10.997Z,17.13
2023-04-19T12:13:38.343Z,17.10
2023-04-19T12:16:06.164Z,17.07
2023-04-19T12:18:49.159Z,17.15
2023-04-19T12:21:27.554Z,17.08
2023-04-19T12:23:56.459Z,17.10
2023-04-19T12:26:25.311Z,17.18
2023-04-19T12:28:52.560Z,17.09
2023-04-19T12:31:20.803Z,16.84
2023-04-19T12:33:49.123Z,16.68
2023-04-19T12:36:16.441Z,16.71
2023-04-19T12:38:43.944Z,16.52
2023-04-19T12:41:11.700Z,16.64
2023-04-19T12:43:38.816Z,16.61
2023-04-19T12:46:06.191Z,16.70
2023-04-19T12:48:33.833Z,16.95
2023-04-19T12:51:01.199Z,17.17
2023-04-19T12:53:28.481Z,17.27
2023-04-19T12:55:56.002Z,17.18
2023-04-19T12:58:23.244Z,17.05
2023-04-19T13:00:50.994Z,17.12
2023-04-19T13:03:18.737Z,17.48
2023-04-19T13:05:46.088Z,17.76
2023-04-19T13:08:13.305Z,17.65
2023-04-19T13:10:40.847Z,17.59
2023-04-19T13:13:08.063Z,17.18
2023-04-19T13:15:35.442Z,16.85
2023-04-19T13:18:03.089Z,16.81
2023-04-19T13:20:30.378Z,16.83
2023-04-19T13:22:57.569Z,17.03
2023-04-19T13:25:25.049Z,17.38
2023-04-19T13:27:52.534Z,17.46
2023-04-19T13:30:19.780Z,17.77
2023-04-19T13:32:47.372Z,17.99
2023-04-19T13:35:14.577Z,17.90
2023-04-19T13:37:44.290Z,17.57
2023-04-19T13:40:18.888Z,17.20
2023-04-19T13:42:46.775Z,17.09
2023-04-19T13:45:14.274Z,16.65
2023-04-19T13:47:41.446Z,16.79
2023-04-19T13:50:09.009Z,17.02
2023-04-19T13:52:36.472Z,17.04
2023-04-19T13:55:03.781Z,16.54
2023-04-19T13:57:31.139Z,16.50
2023-04-19T13:59:58.589Z,16.48
2023-04-19T14:02:26.035Z,16.39
2023-04-19T14:04:53.595Z,16.43
2023-04-19T14:07:20.755Z,16.41
2023-04-19T14:09:48.453Z,16.42
2023-04-19T14:12:15.957Z,16.56
2023-04-19T14:14:43.149Z,16.53
2023-04-19T14:17:10.228Z,16.76
2023-04-19T14:19:37.943Z,17.02
2023-04-19T14:22:05.076Z,16.86
2023-04-19T14:24:32.266Z,16.76
2023-04-19T14:27:10.225Z,16.50
2023-04-19T14:29:37.850Z,16.31
2023-04-19T14:32:24.490Z,16.51
2023-04-19T14:34:54.905Z,16.73
2023-04-19T14:37:23.402Z,16.76
2023-04-19T14:39:50.932Z,16.98
2023-04-19T14:42:20.126Z,17.04
2023-04-19T14:44:52.520Z,16.95
2023-04-19T14:47:20.837Z,16.88
2023-04-19T14:49:48.046Z,16.93
2023-04-19T14:52:16.165Z,16.85
2023-04-19T14:54:43.456Z,16.85
2023-04-19T14:57:10.690Z,16.77
2023-04-19T14:59:38.079Z,16.54
2023-04-19T15:02:05.944Z,16.78
2023-04-19T15:04:40.596Z,16.93
2023-04-19T15:07:08.830Z,17.01
2023-04-19T15:09:36.088Z,16.85
2023-04-19T15:12:03.257Z,16.62
2023-04-19T15:14:30.692Z,16.73
2023-04-19T15:16:57.777Z,16.97
2023-04-19T15:19:24.854Z,16.90
2023-04-19T15:21:52.347Z,17.02
2023-04-19T15:24:19.404Z,17.04
2023-04-19T15:26:46.582Z,17.00
2023-04-19T15:29:14.410Z,16.94
2023-04-19T15:31:41.775Z,16.94
2023-04-19T15:34:08.914Z,16.54
2023-04-19T15:36:36.388Z,16.28
2023-04-19T15:39:03.521Z,16.01
2023-04-19T15:41:30.729Z,16.17
2023-04-19T15:43:58.148Z,16.30
2023-04-19T15:46:25.303Z,16.19
2023-04-19T15:48:52.863Z,16.23
2023-04-19T15:51:20.248Z,16.28
2023-04-19T15:53:47.341Z,16.45
2023-04-19T15:56:14.457Z,16.39
2023-04-19T15:58:42.262Z,16.20
2023-04-19T16:01:13.266Z,16.03
2023-04-19T16:03:41.401Z,16.03
2023-04-19T16:06:08.764Z,16.02
2023-04-19T16:08:35.979Z,15.95
2023-04-19T16:11:05.471Z,15.89
2023-04-19T16:13:32.628Z,15.88
2023-04-19T16:16:01.338Z,15.71
2023-04-19T16:18:28.913Z,15.60
2023-04-19T16:20:56.094Z,15.72
2023-04-19T16:23:24.361Z,15.82
2023-04-19T16:25:54.274Z,15.79
2023-04-19T16:28:23.291Z,15.76
2023-04-19T16:30:50.416Z,15.93
2023-04-19T16:33:17.877Z,16.03
2023-04-19T16:35:45.414Z,15.92
2023-04-19T16:38:12.585Z,15.94
2023-04-19T16:40:40.262Z,15.97
2023-04-19T16:43:07.495Z,16.00
2023-04-19T16:45:34.661Z,16.04
2023-04-19T16:48:02.258Z,16.10
2023-04-19T16:50:29.440Z,15.91
2023-04-19T16:52:58.438Z,15.93
2023-04-19T16:55:25.860Z,15.73
2023-04-19T16:57:55.535Z,15.65
2023-04-19T17:00:23.345Z,15.47
2023-04-19T17:02:52.052Z,15.39
2023-04-19T17:05:19.731Z,15.34
2023-04-19T17:07:46.865Z,15.12
2023-04-19T17:10:14.313Z,15.14
2023-04-19T17:12:41.472Z,15.05
2023-04-19T17:15:08.948Z,15.01
2023-04-19T17:17:36.487Z,14.85
2023-04-19T17:20:05.753Z,14.77
2023-04-19T17:22:32.975Z,14.76
2023-04-19T17:25:00.501Z,14.74
2023-04-19T17:27:27.712Z,14.60
2023-04-19T17:29:54.853Z,14.64
2023-04-19T17:32:22.261Z,14.53
2023-04-19T17:34:51.915Z,14.50
2023-04-19T17:37:19.004Z,14.41
2023-04-19T17:39:46.478Z,14.39
2023-04-19T17:42:13.633Z,14.33
2023-04-19T17:44:40.865Z,14.34
2023-04-19T17:47:08.249Z,14.37
2023-04-19T17:49:35.383Z,14.33
2023-04-19T17:52:02.550Z,14.30
2023-04-19T17:54:30.075Z,14.24
2023-04-19T17:57:02.511Z,14.17
2023-04-19T17:59:30.233Z,14.06
2023-04-19T18:01:57.459Z,13.99
2023-04-19T18:04:25.068Z,13.94
2023-04-19T18:06:52.406Z,13.93
2023-04-19T18:09:20.423Z,13.74
2023-04-19T18:11:47.982Z,13.68
2023-04-19T18:14:15.420Z,13.68
2023-04-19T18:16:42.861Z,13.60
2023-04-19T18:19:11.439Z,13.53
2023-04-19T18:21:38.614Z,13.54
2023-04-19T18:24:06.235Z,13.62
2023-04-19T18:26:40.384Z,13.56
2023-04-19T18:29:07.609Z,13.46
2023-04-19T18:31:35.180Z,13.40
2023-04-19T18:34:02.935Z,13.40
2023-04-19T18:36:30.256Z,13.42
2023-04-19T18:38:57.769Z,13.32
2023-04-19T18:41:24.991Z,13.18
2023-04-19T18:44:25.857Z,13.05
2023-04-19T18:46:41.984Z,12.97
2023-04-19T18:49:10.153Z,12.95
2023-04-19T18:51:39.000Z,12.91
2023-04-19T18:54:06.479Z,12.86
2023-04-19T18:59:04.077Z,12.73
2023-04-19T19:01:34.252Z,12.60
2023-04-19T19:04:23.938Z,12.62
2023-04-19T19:06:49.982Z,12.64
2023-04-19T19:09:17.710Z,12.62
2023-04-19T19:11:56.206Z,12.58
2023-04-19T19:14:24.567Z,12.52
2023-04-19T19:16:53.014Z,12.56
2023-04-19T19:19:22.440Z,12.48
2023-04-19T19:21:52.120Z,12.43
2023-04-19T19:24:19.348Z,12.41
2023-04-19T19:26:46.558Z,12.43
2023-04-19T19:29:16.962Z,12.42
2023-04-19T19:31:44.279Z,12.34
2023-04-19T19:34:25.442Z,12.27
2023-04-19T19:36:56.322Z,12.26
2023-04-19T19:39:23.877Z,12.20
2023-04-19T19:42:05.393Z,12.16
2023-04-19T19:44:33.855Z,12.20
2023-04-19T19:47:01.131Z,12.18
2023-04-19T19:49:28.420Z,12.20
2023-04-19T19:51:59.454Z,12.16
2023-04-19T19:54:27.431Z,12.13
2023-04-19T19:59:30.165Z,12.21
2023-04-19T20:01:57.916Z,12.20
2023-04-19T20:04:25.947Z,12.15
2023-04-19T20:09:23.329Z,12.01
2023-04-19T20:11:50.788Z,11.94
2023-04-19T20:14:17.976Z,11.95
2023-04-19T20:16:45.298Z,11.88
2023-04-19T20:19:13.175Z,11.86
2023-04-19T20:21:40.464Z,11.88
2023-04-19T20:24:08.065Z,11.86
2023-04-19T20:26:35.681Z,11.87
2023-04-19T20:29:02.967Z,11.86
2023-04-19T20:31:30.288Z,11.81
2023-04-19T20:33:57.852Z,11.81
2023-04-19T20:36:25.108Z,11.75
2023-04-19T20:38:52.316Z,11.66
2023-04-19T20:41:22.097Z,11.54
2023-04-19T20:43:49.315Z,11.54
2023-04-19T20:46:16.920Z,11.54
2023-04-19T20:48:44.489Z,11.44
2023-04-19T20:51:12.784Z,11.42
2023-04-19T20:53:39.959Z,11.47
2023-04-19T20:56:07.468Z,11.39
2023-04-19T20:58:35.100Z,11.44
2023-04-19T21:01:02.397Z,11.49
2023-04-19T21:03:30.056Z,11.48
2023-04-19T21:05:57.326Z,11.43
2023-04-19T21:08:24.511Z,11.37
2023-04-19T21:10:52.006Z,11.30
2023-04-19T21:13:19.202Z,11.21
2023-04-19T21:15:46.470Z,11.08
2023-04-19T21:18:14.074Z,11.02
2023-04-19T21:20:41.270Z,10.75
2023-04-19T21:23:08.585Z,10.56
2023-04-19T21:25:36.131Z,10.55
2023-04-19T21:28:03.350Z,10.49
2023-04-19T21:30:30.639Z,10.45
2023-04-19T21:32:58.191Z,10.42
2023-04-19T21:35:26.073Z,10.35
2023-04-19T21:37:53.270Z,10.32
2023-04-19T21:40:20.860Z,10.32
2023-04-19T21:42:48.041Z,10.20
2023-04-19T21:45:15.249Z,10.12
2023-04-19T21:47:42.783Z,10.08
2023-04-19T21:50:10.317Z,10.01
2023-04-19T21:52:40.541Z,10.04
2023-04-19T21:55:08.514Z,9.99
2023-04-19T21:57:37.611Z,9.83
2023-04-19T22:00:06.455Z,9.73
2023-04-19T22:02:33.978Z,9.63
2023-04-19T22:05:02.028Z,9.56
2023-04-19T22:07:32.408Z,9.63
2023-04-19T22:10:01.386Z,9.65
2023-04-19T22:12:30.960Z,9.71
2023-04-19T22:14:58.079Z,9.75
2023-04-19T22:17:25.258Z,9.70
2023-04-19T22:19:54.173Z,9.73
2023-04-19T22:22:21.286Z,9.81
2023-04-19T22:24:57.398Z,9.84
2023-04-19T22:27:25.900Z,9.87
2023-04-19T22:29:53.251Z,9.89
2023-04-19T22:32:20.487Z,9.88
2023-04-19T22:34:47.903Z,9.85
2023-04-19T22:37:15.027Z,9.83
2023-04-19T22:39:42.146Z,9.76
2023-04-19T22:42:09.598Z,9.74
2023-04-19T22:44:36.728Z,9.70
2023-04-19T22:47:04.938Z,9.67
2023-04-19T22:49:33.055Z,9.63
2023-04-19T22:52:00.263Z,9.62
2023-04-19T22:54:27.397Z,9.66
2023-04-19T22:56:54.894Z,9.78
2023-04-19T22:59:22.070Z,9.71
2023-04-19T23:01:49.386Z,9.56
2023-04-19T23:04:17.182Z,9.50
2023-04-19T23:06:44.726Z,9.44
2023-04-19T23:09:13.829Z,9.40
2023-04-19T23:11:42.232Z,9.41
2023-04-19T23:14:10.509Z,9.38
2023-04-19T23:16:38.751Z,9.33
2023-04-19T23:19:07.533Z,9.34
2023-04-19T23:21:34.776Z,9.34
2023-04-19T23:24:01.965Z,9.32
2023-04-19T23:26:30.182Z,9.29
2023-04-19T23:28:57.343Z,9.27
2023-04-19T23:31:24.628Z,9.32
2023-04-19T23:33:52.152Z,9.36
2023-04-19T23:36:19.307Z,9.37
2023-04-19T23:38:46.560Z,9.39
2023-04-19T23:41:14.067Z,9.43
2023-04-19T23:43:41.258Z,9.46
2023-04-19T23:46:08.510Z,9.51
2023-04-19T23:48:36.100Z,9.55
2023-04-19T23:51:03.396Z,9.62
2023-04-19T23:53:30.826Z,9.69
2023-04-19T23:55:58.248Z,9.69
2023-04-19T23:58:25.453Z,9.70
